Aviation Digital Data Service (ADDS)

Output produced by METARs form (1148 UTC 18 June 2019)
found at http://www.aviationweather.gov/metar/data/
 
METAR text: LFBD 181130Z AUTO 20004G18KT 120V240 CAVOK 29/16 Q1010 NOSIG
Conditions at: LFBD (BORDEAUX/MERIGNA, FR) observed 1130 UTC 18 June 2019
Temperature: 29.0°C (84°F)
Dewpoint: 16.0°C (61°F) [RH = 45%]
Pressure (altimeter): 29.82 inches Hg (1010.0 mb)
Winds: from the SSW (200 degrees) at 5 MPH (4 knots; 2.1 m/s)
gusting to 21 MPH (18 knots; 9.3 m/s)
Visibility: 6 or more miles (10+ km)
Ceiling: ceiling and visibility are OK
Clouds: unknown
Weather: no significant weather observed at this time

METAR text: LFBD 181100Z AUTO 17006KT 130V220 CAVOK 29/15 Q1010 NOSIG
Conditions at: LFBD (BORDEAUX/MERIGNA, FR) observed 1100 UTC 18 June 2019
Temperature: 29.0°C (84°F)
Dewpoint: 15.0°C (59°F) [RH = 43%]
Pressure (altimeter): 29.82 inches Hg (1010.0 mb)
Winds: from the S (170 degrees) at 7 MPH (6 knots; 3.1 m/s)
Visibility: 6 or more miles (10+ km)
Ceiling: ceiling and visibility are OK
Clouds: unknown
Weather: no significant weather observed at this time

METAR text: LFBD 181030Z AUTO 17005KT 090V220 CAVOK 27/17 Q1010 NOSIG
Conditions at: LFBD (BORDEAUX/MERIGNA, FR) observed 1030 UTC 18 June 2019
Temperature: 27.0°C (81°F)
Dewpoint: 17.0°C (63°F) [RH = 54%]
Pressure (altimeter): 29.82 inches Hg (1010.0 mb)
Winds: from the S (170 degrees) at 6 MPH (5 knots; 2.6 m/s)
Visibility: 6 or more miles (10+ km)
Ceiling: ceiling and visibility are OK
Clouds: unknown
Weather: no significant weather observed at this time

METAR text: LFBD 181000Z AUTO 14006KT 110V180 CAVOK 26/16 Q1010 NOSIG
Conditions at: LFBD (BORDEAUX/MERIGNA, FR) observed 1000 UTC 18 June 2019
Temperature: 26.0°C (79°F)
Dewpoint: 16.0°C (61°F) [RH = 54%]
Pressure (altimeter): 29.82 inches Hg (1010.0 mb)
Winds: from the SE (140 degrees) at 7 MPH (6 knots; 3.1 m/s)
Visibility: 6 or more miles (10+ km)
Ceiling: ceiling and visibility are OK
Clouds: unknown
Weather: no significant weather observed at this time

METAR text: LFBD 180930Z AUTO 14006KT 090V180 CAVOK 25/16 Q1010 NOSIG
Conditions at: LFBD (BORDEAUX/MERIGNA, FR) observed 0930 UTC 18 June 2019
Temperature: 25.0°C (77°F)
Dewpoint: 16.0°C (61°F) [RH = 57%]
Pressure (altimeter): 29.82 inches Hg (1010.0 mb)
Winds: from the SE (140 degrees) at 7 MPH (6 knots; 3.1 m/s)
Visibility: 6 or more miles (10+ km)
Ceiling: ceiling and visibility are OK
Clouds: unknown
Weather: no significant weather observed at this time

METAR text: LFBD 180900Z AUTO 13005KT 100V180 CAVOK 24/16 Q1010 NOSIG
Conditions at: LFBD (BORDEAUX/MERIGNA, FR) observed 0900 UTC 18 June 2019
Temperature: 24.0°C (75°F)
Dewpoint: 16.0°C (61°F) [RH = 61%]
Pressure (altimeter): 29.82 inches Hg (1010.0 mb)
Winds: from the SE (130 degrees) at 6 MPH (5 knots; 2.6 m/s)
Visibility: 6 or more miles (10+ km)
Ceiling: ceiling and visibility are OK
Clouds: unknown
Weather: no significant weather observed at this time

METAR text: LFBD 180830Z AUTO 12007KT 090V150 CAVOK 22/16 Q1010 NOSIG
Conditions at: LFBD (BORDEAUX/MERIGNA, FR) observed 0830 UTC 18 June 2019
Temperature: 22.0°C (72°F)
Dewpoint: 16.0°C (61°F) [RH = 69%]
Pressure (altimeter): 29.82 inches Hg (1010.0 mb)
Winds: from the ESE (120 degrees) at 8 MPH (7 knots; 3.6 m/s)
Visibility: 6 or more miles (10+ km)
Ceiling: ceiling and visibility are OK
Clouds: unknown
Weather: no significant weather observed at this time

METAR text: LFBD 180800Z AUTO 12009KT CAVOK 21/16 Q1010 NOSIG
Conditions at: LFBD (BORDEAUX/MERIGNA, FR) observed 0800 UTC 18 June 2019
Temperature: 21.0°C (70°F)
Dewpoint: 16.0°C (61°F) [RH = 73%]
Pressure (altimeter): 29.82 inches Hg (1010.0 mb)
Winds: from the ESE (120 degrees) at 10 MPH (9 knots; 4.6 m/s)
Visibility: 6 or more miles (10+ km)
Ceiling: ceiling and visibility are OK
Clouds: unknown
Weather: no significant weather observed at this time

METAR text: LFBD 180730Z AUTO 13007KT CAVOK 21/16 Q1011 NOSIG
Conditions at: LFBD (BORDEAUX/MERIGNA, FR) observed 0730 UTC 18 June 2019
Temperature: 21.0°C (70°F)
Dewpoint: 16.0°C (61°F) [RH = 73%]
Pressure (altimeter): 29.85 inches Hg (1011.0 mb)
Winds: from the SE (130 degrees) at 8 MPH (7 knots; 3.6 m/s)
Visibility: 6 or more miles (10+ km)
Ceiling: ceiling and visibility are OK
Clouds: unknown
Weather: no significant weather observed at this time

METAR text: LFBD 180700Z AUTO 12007KT CAVOK 20/17 Q1011 NOSIG
Conditions at: LFBD (BORDEAUX/MERIGNA, FR) observed 0700 UTC 18 June 2019
Temperature: 20.0°C (68°F)
Dewpoint: 17.0°C (63°F) [RH = 83%]
Pressure (altimeter): 29.85 inches Hg (1011.0 mb)
Winds: from the ESE (120 degrees) at 8 MPH (7 knots; 3.6 m/s)
Visibility: 6 or more miles (10+ km)
Ceiling: ceiling and visibility are OK
Clouds: unknown
Weather: no significant weather observed at this time

METAR text: LFBD 180630Z AUTO 13006KT CAVOK 19/16 Q1011 NOSIG
Conditions at: LFBD (BORDEAUX/MERIGNA, FR) observed 0630 UTC 18 June 2019
Temperature: 19.0°C (66°F)
Dewpoint: 16.0°C (61°F) [RH = 83%]
Pressure (altimeter): 29.85 inches Hg (1011.0 mb)
Winds: from the SE (130 degrees) at 7 MPH (6 knots; 3.1 m/s)
Visibility: 6 or more miles (10+ km)
Ceiling: ceiling and visibility are OK
Clouds: unknown
Weather: no significant weather observed at this time

METAR text: LFBD 180600Z AUTO 15005KT CAVOK 19/17 Q1011 TEMPO SCT090TCU
Conditions at: LFBD (BORDEAUX/MERIGNA, FR) observed 0600 UTC 18 June 2019
Temperature: 19.0°C (66°F)
Dewpoint: 17.0°C (63°F) [RH = 88%]
Pressure (altimeter): 29.85 inches Hg (1011.0 mb)
Winds: from the SSE (150 degrees) at 6 MPH (5 knots; 2.6 m/s)
Visibility: 6 or more miles (10+ km)
Ceiling: ceiling and visibility are OK
Clouds: unknown
Weather: no significant weather observed at this time

METAR text: LFBD 180530Z AUTO 16006KT 9999 ///TCU 19/16 Q1011 BECMG NSC
Conditions at: LFBD (BORDEAUX/MERIGNA, FR) observed 0530 UTC 18 June 2019
Temperature: 19.0°C (66°F)
Dewpoint: 16.0°C (61°F) [RH = 83%]
Pressure (altimeter): 29.85 inches Hg (1011.0 mb)
Winds: from the SSE (160 degrees) at 7 MPH (6 knots; 3.1 m/s)
Visibility: 6 or more miles (10+ km)
Ceiling: unknown
Clouds: missing
Weather: no significant weather observed at this time

METAR text: LFBD 180500Z AUTO 36004KT 310V040 9999 ///TCU 19/16 Q1011 TEMPO 25010KT -TSRA SCT080CB BKN090TCU
Conditions at: LFBD (BORDEAUX/MERIGNA, FR) observed 0500 UTC 18 June 2019
Temperature: 19.0°C (66°F)
Dewpoint: 16.0°C (61°F) [RH = 83%]
Pressure (altimeter): 29.85 inches Hg (1011.0 mb)
Winds: from the N (360 degrees) at 5 MPH (4 knots; 2.1 m/s)
Visibility: 6 or more miles (10+ km)
Ceiling: unknown
Clouds: missing
Weather: no significant weather observed at this time

METAR text: LFBD 180430Z AUTO VRB03KT 9999 -RA ///TCU 19/16 Q1011 TEMPO -TSRA SCT080CB BKN090TCU
Conditions at: LFBD (BORDEAUX/MERIGNA, FR) observed 0430 UTC 18 June 2019
Temperature: 19.0°C (66°F)
Dewpoint: 16.0°C (61°F) [RH = 83%]
Pressure (altimeter): 29.85 inches Hg (1011.0 mb)
Winds: variable direction winds at 3 MPH (3 knots; 1.5 m/s)
Visibility: 6 or more miles (10+ km)
Ceiling: unknown
Clouds: missing
Weather: -RA  (light rain)

METAR text: LFBD 180400Z AUTO 25005KT 9999 VCTS ///CB 19/15 Q1012 TEMPO NSW
Conditions at: LFBD (BORDEAUX/MERIGNA, FR) observed 0400 UTC 18 June 2019
Temperature: 19.0°C (66°F)
Dewpoint: 15.0°C (59°F) [RH = 78%]
Pressure (altimeter): 29.88 inches Hg (1012.0 mb)
Winds: from the WSW (250 degrees) at 6 MPH (5 knots; 2.6 m/s)
Visibility: 6 or more miles (10+ km)
Ceiling: unknown
Clouds: missing
Weather: VCTS  (thunderstorm in vicinity)

METAR text: LFBD 180330Z AUTO 25005KT 9999 ///TCU 19/15 Q1011 NOSIG
Conditions at: LFBD (BORDEAUX/MERIGNA, FR) observed 0330 UTC 18 June 2019
Temperature: 19.0°C (66°F)
Dewpoint: 15.0°C (59°F) [RH = 78%]
Pressure (altimeter): 29.85 inches Hg (1011.0 mb)
Winds: from the WSW (250 degrees) at 6 MPH (5 knots; 2.6 m/s)
Visibility: 6 or more miles (10+ km)
Ceiling: unknown
Clouds: missing
Weather: no significant weather observed at this time

METAR text: LFBD 180300Z AUTO 28004KT 260V320 CAVOK 20/15 Q1011 TEMPO BKN090TCU
Conditions at: LFBD (BORDEAUX/MERIGNA, FR) observed 0300 UTC 18 June 2019
Temperature: 20.0°C (68°F)
Dewpoint: 15.0°C (59°F) [RH = 73%]
Pressure (altimeter): 29.85 inches Hg (1011.0 mb)
Winds: from the W (280 degrees) at 5 MPH (4 knots; 2.1 m/s)
Visibility: 6 or more miles (10+ km)
Ceiling: ceiling and visibility are OK
Clouds: unknown
Weather: no significant weather observed at this time

METAR text: LFBD 180230Z AUTO VRB03KT CAVOK 20/14 Q1011 TEMPO BKN090TCU
Conditions at: LFBD (BORDEAUX/MERIGNA, FR) observed 0230 UTC 18 June 2019
Temperature: 20.0°C (68°F)
Dewpoint: 14.0°C (57°F) [RH = 68%]
Pressure (altimeter): 29.85 inches Hg (1011.0 mb)
Winds: variable direction winds at 3 MPH (3 knots; 1.5 m/s)
Visibility: 6 or more miles (10+ km)
Ceiling: ceiling and visibility are OK
Clouds: unknown
Weather: no significant weather observed at this time

METAR text: LFBD 180200Z AUTO 34004KT 260V050 9999 ///TCU 21/14 Q1011 TEMPO NSC
Conditions at: LFBD (BORDEAUX/MERIGNA, FR) observed 0200 UTC 18 June 2019
Temperature: 21.0°C (70°F)
Dewpoint: 14.0°C (57°F) [RH = 64%]
Pressure (altimeter): 29.85 inches Hg (1011.0 mb)
Winds: from the NNW (340 degrees) at 5 MPH (4 knots; 2.1 m/s)
Visibility: 6 or more miles (10+ km)
Ceiling: unknown
Clouds: missing
Weather: no significant weather observed at this time

METAR text: LFBD 180130Z AUTO 13006KT 9999 ///TCU 22/14 Q1011 TEMPO NSC
Conditions at: LFBD (BORDEAUX/MERIGNA, FR) observed 0130 UTC 18 June 2019
Temperature: 22.0°C (72°F)
Dewpoint: 14.0°C (57°F) [RH = 60%]
Pressure (altimeter): 29.85 inches Hg (1011.0 mb)
Winds: from the SE (130 degrees) at 7 MPH (6 knots; 3.1 m/s)
Visibility: 6 or more miles (10+ km)
Ceiling: unknown
Clouds: missing
Weather: no significant weather observed at this time

METAR text: LFBD 180100Z AUTO 09007KT CAVOK 22/14 Q1011 NOSIG
Conditions at: LFBD (BORDEAUX/MERIGNA, FR) observed 0100 UTC 18 June 2019
Temperature: 22.0°C (72°F)
Dewpoint: 14.0°C (57°F) [RH = 60%]
Pressure (altimeter): 29.85 inches Hg (1011.0 mb)
Winds: from the E (90 degrees) at 8 MPH (7 knots; 3.6 m/s)
Visibility: 6 or more miles (10+ km)
Ceiling: ceiling and visibility are OK
Clouds: unknown
Weather: no significant weather observed at this time

METAR text: LFBD 180030Z AUTO 09005KT CAVOK 22/14 Q1012 NOSIG
Conditions at: LFBD (BORDEAUX/MERIGNA, FR) observed 0030 UTC 18 June 2019
Temperature: 22.0°C (72°F)
Dewpoint: 14.0°C (57°F) [RH = 60%]
Pressure (altimeter): 29.88 inches Hg (1012.0 mb)
Winds: from the E (90 degrees) at 6 MPH (5 knots; 2.6 m/s)
Visibility: 6 or more miles (10+ km)
Ceiling: ceiling and visibility are OK
Clouds: unknown
Weather: no significant weather observed at this time

METAR text: LFBD 180000Z AUTO 11006KT CAVOK 22/14 Q1012 NOSIG
Conditions at: LFBD (BORDEAUX/MERIGNA, FR) observed 0000 UTC 18 June 2019
Temperature: 22.0°C (72°F)
Dewpoint: 14.0°C (57°F) [RH = 60%]
Pressure (altimeter): 29.88 inches Hg (1012.0 mb)
Winds: from the ESE (110 degrees) at 7 MPH (6 knots; 3.1 m/s)
Visibility: 6 or more miles (10+ km)
Ceiling: ceiling and visibility are OK
Clouds: unknown
Weather: no significant weather observed at this time

METAR text: LFBD 172330Z AUTO 12005KT CAVOK 22/14 Q1012 NOSIG
Conditions at: LFBD (BORDEAUX/MERIGNA, FR) observed 2330 UTC 17 June 2019
Temperature: 22.0°C (72°F)
Dewpoint: 14.0°C (57°F) [RH = 60%]
Pressure (altimeter): 29.88 inches Hg (1012.0 mb)
Winds: from the ESE (120 degrees) at 6 MPH (5 knots; 2.6 m/s)
Visibility: 6 or more miles (10+ km)
Ceiling: ceiling and visibility are OK
Clouds: unknown
Weather: no significant weather observed at this time

METAR text: LFBD 172300Z AUTO 12002KT CAVOK 22/15 Q1013 NOSIG
Conditions at: LFBD (BORDEAUX/MERIGNA, FR) observed 2300 UTC 17 June 2019
Temperature: 22.0°C (72°F)
Dewpoint: 15.0°C (59°F) [RH = 65%]
Pressure (altimeter): 29.91 inches Hg (1013.0 mb)
Winds: from the ESE (120 degrees) at 2 MPH (2 knots; 1.0 m/s)
Visibility: 6 or more miles (10+ km)
Ceiling: ceiling and visibility are OK
Clouds: unknown
Weather: no significant weather observed at this time

METAR text: LFBD 172230Z AUTO 08003KT CAVOK 23/16 Q1013 NOSIG
Conditions at: LFBD (BORDEAUX/MERIGNA, FR) observed 2230 UTC 17 June 2019
Temperature: 23.0°C (73°F)
Dewpoint: 16.0°C (61°F) [RH = 65%]
Pressure (altimeter): 29.91 inches Hg (1013.0 mb)
Winds: from the E (80 degrees) at 3 MPH (3 knots; 1.5 m/s)
Visibility: 6 or more miles (10+ km)
Ceiling: ceiling and visibility are OK
Clouds: unknown
Weather: no significant weather observed at this time

METAR text: LFBD 172200Z AUTO VRB02KT CAVOK 24/14 Q1013 NOSIG
Conditions at: LFBD (BORDEAUX/MERIGNA, FR) observed 2200 UTC 17 June 2019
Temperature: 24.0°C (75°F)
Dewpoint: 14.0°C (57°F) [RH = 54%]
Pressure (altimeter): 29.91 inches Hg (1013.0 mb)
Winds: variable direction winds at 2 MPH (2 knots; 1.0 m/s)
Visibility: 6 or more miles (10+ km)
Ceiling: ceiling and visibility are OK
Clouds: unknown
Weather: no significant weather observed at this time

METAR text: LFBD 172130Z AUTO 08004KT CAVOK 24/14 Q1013 NOSIG
Conditions at: LFBD (BORDEAUX/MERIGNA, FR) observed 2130 UTC 17 June 2019
Temperature: 24.0°C (75°F)
Dewpoint: 14.0°C (57°F) [RH = 54%]
Pressure (altimeter): 29.91 inches Hg (1013.0 mb)
Winds: from the E (80 degrees) at 5 MPH (4 knots; 2.1 m/s)
Visibility: 6 or more miles (10+ km)
Ceiling: ceiling and visibility are OK
Clouds: unknown
Weather: no significant weather observed at this time

METAR text: LFBD 172100Z AUTO 07005KT 9999 FEW007 24/14 Q1013 NOSIG
Conditions at: LFBD (BORDEAUX/MERIGNA, FR) observed 2100 UTC 17 June 2019
Temperature: 24.0°C (75°F)
Dewpoint: 14.0°C (57°F) [RH = 54%]
Pressure (altimeter): 29.91 inches Hg (1013.0 mb)
Winds: from the ENE (70 degrees) at 6 MPH (5 knots; 2.6 m/s)
Visibility: 6 or more miles (10+ km)
Ceiling: at least 12,000 feet AGL
Clouds: few clouds at 700 feet AGL
Weather: no significant weather observed at this time

METAR text: LFBD 172030Z AUTO 09005KT CAVOK 25/15 Q1013 NOSIG
Conditions at: LFBD (BORDEAUX/MERIGNA, FR) observed 2030 UTC 17 June 2019
Temperature: 25.0°C (77°F)
Dewpoint: 15.0°C (59°F) [RH = 54%]
Pressure (altimeter): 29.91 inches Hg (1013.0 mb)
Winds: from the E (90 degrees) at 6 MPH (5 knots; 2.6 m/s)
Visibility: 6 or more miles (10+ km)
Ceiling: ceiling and visibility are OK
Clouds: unknown
Weather: no significant weather observed at this time

METAR text: LFBD 172000Z AUTO 11007KT CAVOK 26/14 Q1013 NOSIG
Conditions at: LFBD (BORDEAUX/MERIGNA, FR) observed 2000 UTC 17 June 2019
Temperature: 26.0°C (79°F)
Dewpoint: 14.0°C (57°F) [RH = 48%]
Pressure (altimeter): 29.91 inches Hg (1013.0 mb)
Winds: from the ESE (110 degrees) at 8 MPH (7 knots; 3.6 m/s)
Visibility: 6 or more miles (10+ km)
Ceiling: ceiling and visibility are OK
Clouds: unknown
Weather: no significant weather observed at this time

METAR text: LFBD 171930Z AUTO 12005KT CAVOK 26/13 Q1013 NOSIG
Conditions at: LFBD (BORDEAUX/MERIGNA, FR) observed 1930 UTC 17 June 2019
Temperature: 26.0°C (79°F)
Dewpoint: 13.0°C (55°F) [RH = 45%]
Pressure (altimeter): 29.91 inches Hg (1013.0 mb)
Winds: from the ESE (120 degrees) at 6 MPH (5 knots; 2.6 m/s)
Visibility: 6 or more miles (10+ km)
Ceiling: ceiling and visibility are OK
Clouds: unknown
Weather: no significant weather observed at this time

METAR text: LFBD 171900Z AUTO 13006KT CAVOK 27/13 Q1013 NOSIG
Conditions at: LFBD (BORDEAUX/MERIGNA, FR) observed 1900 UTC 17 June 2019
Temperature: 27.0°C (81°F)
Dewpoint: 13.0°C (55°F) [RH = 42%]
Pressure (altimeter): 29.91 inches Hg (1013.0 mb)
Winds: from the SE (130 degrees) at 7 MPH (6 knots; 3.1 m/s)
Visibility: 6 or more miles (10+ km)
Ceiling: ceiling and visibility are OK
Clouds: unknown
Weather: no significant weather observed at this time

METAR text: LFBD 171830Z AUTO 12005KT CAVOK 28/13 Q1013 NOSIG
Conditions at: LFBD (BORDEAUX/MERIGNA, FR) observed 1830 UTC 17 June 2019
Temperature: 28.0°C (82°F)
Dewpoint: 13.0°C (55°F) [RH = 40%]
Pressure (altimeter): 29.91 inches Hg (1013.0 mb)
Winds: from the ESE (120 degrees) at 6 MPH (5 knots; 2.6 m/s)
Visibility: 6 or more miles (10+ km)
Ceiling: ceiling and visibility are OK
Clouds: unknown
Weather: no significant weather observed at this time

METAR text: LFBD 171800Z AUTO 11007KT CAVOK 29/13 Q1013 NOSIG
Conditions at: LFBD (BORDEAUX/MERIGNA, FR) observed 1800 UTC 17 June 2019
Temperature: 29.0°C (84°F)
Dewpoint: 13.0°C (55°F) [RH = 37%]
Pressure (altimeter): 29.91 inches Hg (1013.0 mb)
Winds: from the ESE (110 degrees) at 8 MPH (7 knots; 3.6 m/s)
Visibility: 6 or more miles (10+ km)
Ceiling: ceiling and visibility are OK
Clouds: unknown
Weather: no significant weather observed at this time

METAR text: LFBD 171730Z AUTO 12008KT 080V160 CAVOK 29/12 Q1013 NOSIG
Conditions at: LFBD (BORDEAUX/MERIGNA, FR) observed 1730 UTC 17 June 2019
Temperature: 29.0°C (84°F)
Dewpoint: 12.0°C (54°F) [RH = 35%]
Pressure (altimeter): 29.91 inches Hg (1013.0 mb)
Winds: from the ESE (120 degrees) at 9 MPH (8 knots; 4.1 m/s)
Visibility: 6 or more miles (10+ km)
Ceiling: ceiling and visibility are OK
Clouds: unknown
Weather: no significant weather observed at this time

METAR text: LFBD 171700Z AUTO 12008KT 080V150 CAVOK 29/12 Q1013 NOSIG
Conditions at: LFBD (BORDEAUX/MERIGNA, FR) observed 1700 UTC 17 June 2019
Temperature: 29.0°C (84°F)
Dewpoint: 12.0°C (54°F) [RH = 35%]
Pressure (altimeter): 29.91 inches Hg (1013.0 mb)
Winds: from the ESE (120 degrees) at 9 MPH (8 knots; 4.1 m/s)
Visibility: 6 or more miles (10+ km)
Ceiling: ceiling and visibility are OK
Clouds: unknown
Weather: no significant weather observed at this time

METAR text: LFBD 171630Z AUTO 10008KT 060V130 CAVOK 30/11 Q1013 NOSIG
Conditions at: LFBD (BORDEAUX/MERIGNA, FR) observed 1630 UTC 17 June 2019
Temperature: 30.0°C (86°F)
Dewpoint: 11.0°C (52°F) [RH = 31%]
Pressure (altimeter): 29.91 inches Hg (1013.0 mb)
Winds: from the E (100 degrees) at 9 MPH (8 knots; 4.1 m/s)
Visibility: 6 or more miles (10+ km)
Ceiling: ceiling and visibility are OK
Clouds: unknown
Weather: no significant weather observed at this time

METAR text: LFBD 171600Z AUTO 11009KT 060V150 CAVOK 30/12 Q1013 NOSIG
Conditions at: LFBD (BORDEAUX/MERIGNA, FR) observed 1600 UTC 17 June 2019
Temperature: 30.0°C (86°F)
Dewpoint: 12.0°C (54°F) [RH = 33%]
Pressure (altimeter): 29.91 inches Hg (1013.0 mb)
Winds: from the ESE (110 degrees) at 10 MPH (9 knots; 4.6 m/s)
Visibility: 6 or more miles (10+ km)
Ceiling: ceiling and visibility are OK
Clouds: unknown
Weather: no significant weather observed at this time

METAR text: LFBD 171530Z AUTO 13008KT 070V170 CAVOK 30/13 Q1013 NOSIG
Conditions at: LFBD (BORDEAUX/MERIGNA, FR) observed 1530 UTC 17 June 2019
Temperature: 30.0°C (86°F)
Dewpoint: 13.0°C (55°F) [RH = 35%]
Pressure (altimeter): 29.91 inches Hg (1013.0 mb)
Winds: from the SE (130 degrees) at 9 MPH (8 knots; 4.1 m/s)
Visibility: 6 or more miles (10+ km)
Ceiling: ceiling and visibility are OK
Clouds: unknown
Weather: no significant weather observed at this time

METAR text: LFBD 171500Z AUTO 09008KT 060V130 CAVOK 30/14 Q1014 NOSIG
Conditions at: LFBD (BORDEAUX/MERIGNA, FR) observed 1500 UTC 17 June 2019
Temperature: 30.0°C (86°F)
Dewpoint: 14.0°C (57°F) [RH = 38%]
Pressure (altimeter): 29.94 inches Hg (1014.0 mb)
Winds: from the E (90 degrees) at 9 MPH (8 knots; 4.1 m/s)
Visibility: 6 or more miles (10+ km)
Ceiling: ceiling and visibility are OK
Clouds: unknown
Weather: no significant weather observed at this time

METAR text: LFBD 171430Z AUTO 09007KT 050V130 CAVOK 29/12 Q1014 NOSIG
Conditions at: LFBD (BORDEAUX/MERIGNA, FR) observed 1430 UTC 17 June 2019
Temperature: 29.0°C (84°F)
Dewpoint: 12.0°C (54°F) [RH = 35%]
Pressure (altimeter): 29.94 inches Hg (1014.0 mb)
Winds: from the E (90 degrees) at 8 MPH (7 knots; 3.6 m/s)
Visibility: 6 or more miles (10+ km)
Ceiling: ceiling and visibility are OK
Clouds: unknown
Weather: no significant weather observed at this time

METAR text: LFBD 171400Z AUTO 10007KT 040V170 CAVOK 29/14 Q1014 NOSIG
Conditions at: LFBD (BORDEAUX/MERIGNA, FR) observed 1400 UTC 17 June 2019
Temperature: 29.0°C (84°F)
Dewpoint: 14.0°C (57°F) [RH = 40%]
Pressure (altimeter): 29.94 inches Hg (1014.0 mb)
Winds: from the E (100 degrees) at 8 MPH (7 knots; 3.6 m/s)
Visibility: 6 or more miles (10+ km)
Ceiling: ceiling and visibility are OK
Clouds: unknown
Weather: no significant weather observed at this time

METAR text: LFBD 171330Z AUTO 09007KT 060V140 CAVOK 28/13 Q1015 NOSIG
Conditions at: LFBD (BORDEAUX/MERIGNA, FR) observed 1330 UTC 17 June 2019
Temperature: 28.0°C (82°F)
Dewpoint: 13.0°C (55°F) [RH = 40%]
Pressure (altimeter): 29.97 inches Hg (1015.0 mb)
Winds: from the E (90 degrees) at 8 MPH (7 knots; 3.6 m/s)
Visibility: 6 or more miles (10+ km)
Ceiling: ceiling and visibility are OK
Clouds: unknown
Weather: no significant weather observed at this time

METAR text: LFBD 171300Z AUTO 11005KT 060V180 CAVOK 28/12 Q1015 NOSIG
Conditions at: LFBD (BORDEAUX/MERIGNA, FR) observed 1300 UTC 17 June 2019
Temperature: 28.0°C (82°F)
Dewpoint: 12.0°C (54°F) [RH = 37%]
Pressure (altimeter): 29.97 inches Hg (1015.0 mb)
Winds: from the ESE (110 degrees) at 6 MPH (5 knots; 2.6 m/s)
Visibility: 6 or more miles (10+ km)
Ceiling: ceiling and visibility are OK
Clouds: unknown
Weather: no significant weather observed at this time

METAR text: LFBD 171230Z AUTO 10006KT 030V160 CAVOK 28/14 Q1015 NOSIG
Conditions at: LFBD (BORDEAUX/MERIGNA, FR) observed 1230 UTC 17 June 2019
Temperature: 28.0°C (82°F)
Dewpoint: 14.0°C (57°F) [RH = 42%]
Pressure (altimeter): 29.97 inches Hg (1015.0 mb)
Winds: from the E (100 degrees) at 7 MPH (6 knots; 3.1 m/s)
Visibility: 6 or more miles (10+ km)
Ceiling: ceiling and visibility are OK
Clouds: unknown
Weather: no significant weather observed at this time

METAR text: LFBD 171200Z AUTO 13005KT 070V210 CAVOK 28/12 Q1016 NOSIG
Conditions at: LFBD (BORDEAUX/MERIGNA, FR) observed 1200 UTC 17 June 2019
Temperature: 28.0°C (82°F)
Dewpoint: 12.0°C (54°F) [RH = 37%]
Pressure (altimeter): 30.00 inches Hg (1016.0 mb)
Winds: from the SE (130 degrees) at 6 MPH (5 knots; 2.6 m/s)
Visibility: 6 or more miles (10+ km)
Ceiling: ceiling and visibility are OK
Clouds: unknown
Weather: no significant weather observed at this time

METAR text: LFBD 171130Z AUTO 09006KT 020V160 CAVOK 27/13 Q1016 NOSIG
Conditions at: LFBD (BORDEAUX/MERIGNA, FR) observed 1130 UTC 17 June 2019
Temperature: 27.0°C (81°F)
Dewpoint: 13.0°C (55°F) [RH = 42%]
Pressure (altimeter): 30.00 inches Hg (1016.0 mb)
Winds: from the E (90 degrees) at 7 MPH (6 knots; 3.1 m/s)
Visibility: 6 or more miles (10+ km)
Ceiling: ceiling and visibility are OK
Clouds: unknown
Weather: no significant weather observed at this time

METAR text: LFBD 171100Z AUTO 09006KT 040V180 CAVOK 27/12 Q1016 NOSIG
Conditions at: LFBD (BORDEAUX/MERIGNA, FR) observed 1100 UTC 17 June 2019
Temperature: 27.0°C (81°F)
Dewpoint: 12.0°C (54°F) [RH = 39%]
Pressure (altimeter): 30.00 inches Hg (1016.0 mb)
Winds: from the E (90 degrees) at 7 MPH (6 knots; 3.1 m/s)
Visibility: 6 or more miles (10+ km)
Ceiling: ceiling and visibility are OK
Clouds: unknown
Weather: no significant weather observed at this time

METAR text: LFBD 171030Z AUTO 09006KT 020V140 CAVOK 26/13 Q1016 NOSIG
Conditions at: LFBD (BORDEAUX/MERIGNA, FR) observed 1030 UTC 17 June 2019
Temperature: 26.0°C (79°F)
Dewpoint: 13.0°C (55°F) [RH = 45%]
Pressure (altimeter): 30.00 inches Hg (1016.0 mb)
Winds: from the E (90 degrees) at 7 MPH (6 knots; 3.1 m/s)
Visibility: 6 or more miles (10+ km)
Ceiling: ceiling and visibility are OK
Clouds: unknown
Weather: no significant weather observed at this time

METAR text: LFBD 171000Z AUTO 07005KT 360V130 CAVOK 25/13 Q1017 NOSIG
Conditions at: LFBD (BORDEAUX/MERIGNA, FR) observed 1000 UTC 17 June 2019
Temperature: 25.0°C (77°F)
Dewpoint: 13.0°C (55°F) [RH = 47%]
Pressure (altimeter): 30.03 inches Hg (1017.0 mb)
Winds: from the ENE (70 degrees) at 6 MPH (5 knots; 2.6 m/s)
Visibility: 6 or more miles (10+ km)
Ceiling: ceiling and visibility are OK
Clouds: unknown
Weather: no significant weather observed at this time

METAR text: LFBD 170930Z AUTO 06005KT 010V100 CAVOK 24/13 Q1017 NOSIG
Conditions at: LFBD (BORDEAUX/MERIGNA, FR) observed 0930 UTC 17 June 2019
Temperature: 24.0°C (75°F)
Dewpoint: 13.0°C (55°F) [RH = 50%]
Pressure (altimeter): 30.03 inches Hg (1017.0 mb)
Winds: from the ENE (60 degrees) at 6 MPH (5 knots; 2.6 m/s)
Visibility: 6 or more miles (10+ km)
Ceiling: ceiling and visibility are OK
Clouds: unknown
Weather: no significant weather observed at this time

METAR text: LFBD 170900Z AUTO 08005KT 030V110 CAVOK 24/13 Q1017 NOSIG
Conditions at: LFBD (BORDEAUX/MERIGNA, FR) observed 0900 UTC 17 June 2019
Temperature: 24.0°C (75°F)
Dewpoint: 13.0°C (55°F) [RH = 50%]
Pressure (altimeter): 30.03 inches Hg (1017.0 mb)
Winds: from the E (80 degrees) at 6 MPH (5 knots; 2.6 m/s)
Visibility: 6 or more miles (10+ km)
Ceiling: ceiling and visibility are OK
Clouds: unknown
Weather: no significant weather observed at this time

METAR text: LFBD 170830Z AUTO 04004KT 010V080 CAVOK 23/13 Q1017 NOSIG
Conditions at: LFBD (BORDEAUX/MERIGNA, FR) observed 0830 UTC 17 June 2019
Temperature: 23.0°C (73°F)
Dewpoint: 13.0°C (55°F) [RH = 53%]
Pressure (altimeter): 30.03 inches Hg (1017.0 mb)
Winds: from the NE (40 degrees) at 5 MPH (4 knots; 2.1 m/s)
Visibility: 6 or more miles (10+ km)
Ceiling: ceiling and visibility are OK
Clouds: unknown
Weather: no significant weather observed at this time

METAR text: LFBD 170800Z AUTO VRB03KT CAVOK 22/13 Q1017 NOSIG
Conditions at: LFBD (BORDEAUX/MERIGNA, FR) observed 0800 UTC 17 June 2019
Temperature: 22.0°C (72°F)
Dewpoint: 13.0°C (55°F) [RH = 57%]
Pressure (altimeter): 30.03 inches Hg (1017.0 mb)
Winds: variable direction winds at 3 MPH (3 knots; 1.5 m/s)
Visibility: 6 or more miles (10+ km)
Ceiling: ceiling and visibility are OK
Clouds: unknown
Weather: no significant weather observed at this time

METAR text: LFBD 170730Z AUTO VRB03KT CAVOK 20/14 Q1017 NOSIG
Conditions at: LFBD (BORDEAUX/MERIGNA, FR) observed 0730 UTC 17 June 2019
Temperature: 20.0°C (68°F)
Dewpoint: 14.0°C (57°F) [RH = 68%]
Pressure (altimeter): 30.03 inches Hg (1017.0 mb)
Winds: variable direction winds at 3 MPH (3 knots; 1.5 m/s)
Visibility: 6 or more miles (10+ km)
Ceiling: ceiling and visibility are OK
Clouds: unknown
Weather: no significant weather observed at this time

METAR text: LFBD 170700Z AUTO 10003KT 050V130 CAVOK 19/14 Q1017 NOSIG
Conditions at: LFBD (BORDEAUX/MERIGNA, FR) observed 0700 UTC 17 June 2019
Temperature: 19.0°C (66°F)
Dewpoint: 14.0°C (57°F) [RH = 73%]
Pressure (altimeter): 30.03 inches Hg (1017.0 mb)
Winds: from the E (100 degrees) at 3 MPH (3 knots; 1.5 m/s)
Visibility: 6 or more miles (10+ km)
Ceiling: ceiling and visibility are OK
Clouds: unknown
Weather: no significant weather observed at this time

METAR text: LFBD 170630Z AUTO 06005KT 020V090 CAVOK 18/13 Q1017 NOSIG
Conditions at: LFBD (BORDEAUX/MERIGNA, FR) observed 0630 UTC 17 June 2019
Temperature: 18.0°C (64°F)
Dewpoint: 13.0°C (55°F) [RH = 73%]
Pressure (altimeter): 30.03 inches Hg (1017.0 mb)
Winds: from the ENE (60 degrees) at 6 MPH (5 knots; 2.6 m/s)
Visibility: 6 or more miles (10+ km)
Ceiling: ceiling and visibility are OK
Clouds: unknown
Weather: no significant weather observed at this time

METAR text: LFBD 170600Z AUTO 04006KT CAVOK 17/13 Q1017 NOSIG
Conditions at: LFBD (BORDEAUX/MERIGNA, FR) observed 0600 UTC 17 June 2019
Temperature: 17.0°C (63°F)
Dewpoint: 13.0°C (55°F) [RH = 77%]
Pressure (altimeter): 30.03 inches Hg (1017.0 mb)
Winds: from the NE (40 degrees) at 7 MPH (6 knots; 3.1 m/s)
Visibility: 6 or more miles (10+ km)
Ceiling: ceiling and visibility are OK
Clouds: unknown
Weather: no significant weather observed at this time

METAR text: LFBD 170530Z AUTO 04004KT 010V070 CAVOK 16/13 Q1018 NOSIG
Conditions at: LFBD (BORDEAUX/MERIGNA, FR) observed 0530 UTC 17 June 2019
Temperature: 16.0°C (61°F)
Dewpoint: 13.0°C (55°F) [RH = 82%]
Pressure (altimeter): 30.06 inches Hg (1018.0 mb)
Winds: from the NE (40 degrees) at 5 MPH (4 knots; 2.1 m/s)
Visibility: 6 or more miles (10+ km)
Ceiling: ceiling and visibility are OK
Clouds: unknown
Weather: no significant weather observed at this time

METAR text: LFBD 170500Z AUTO 04005KT CAVOK 15/12 Q1018 NOSIG
Conditions at: LFBD (BORDEAUX/MERIGNA, FR) observed 0500 UTC 17 June 2019
Temperature: 15.0°C (59°F)
Dewpoint: 12.0°C (54°F) [RH = 82%]
Pressure (altimeter): 30.06 inches Hg (1018.0 mb)
Winds: from the NE (40 degrees) at 6 MPH (5 knots; 2.6 m/s)
Visibility: 6 or more miles (10+ km)
Ceiling: ceiling and visibility are OK
Clouds: unknown
Weather: no significant weather observed at this time

METAR text: LFBD 170430Z AUTO 02004KT CAVOK 14/12 Q1018 NOSIG
Conditions at: LFBD (BORDEAUX/MERIGNA, FR) observed 0430 UTC 17 June 2019
Temperature: 14.0°C (57°F)
Dewpoint: 12.0°C (54°F) [RH = 88%]
Pressure (altimeter): 30.06 inches Hg (1018.0 mb)
Winds: from the NNE (20 degrees) at 5 MPH (4 knots; 2.1 m/s)
Visibility: 6 or more miles (10+ km)
Ceiling: ceiling and visibility are OK
Clouds: unknown
Weather: no significant weather observed at this time

METAR text: LFBD 170400Z AUTO 01004KT 340V040 CAVOK 14/12 Q1018 NOSIG
Conditions at: LFBD (BORDEAUX/MERIGNA, FR) observed 0400 UTC 17 June 2019
Temperature: 14.0°C (57°F)
Dewpoint: 12.0°C (54°F) [RH = 88%]
Pressure (altimeter): 30.06 inches Hg (1018.0 mb)
Winds: from the N (10 degrees) at 5 MPH (4 knots; 2.1 m/s)
Visibility: 6 or more miles (10+ km)
Ceiling: ceiling and visibility are OK
Clouds: unknown
Weather: no significant weather observed at this time

METAR text: LFBD 170330Z AUTO 01004KT CAVOK 14/12 Q1018 NOSIG
Conditions at: LFBD (BORDEAUX/MERIGNA, FR) observed 0330 UTC 17 June 2019
Temperature: 14.0°C (57°F)
Dewpoint: 12.0°C (54°F) [RH = 88%]
Pressure (altimeter): 30.06 inches Hg (1018.0 mb)
Winds: from the N (10 degrees) at 5 MPH (4 knots; 2.1 m/s)
Visibility: 6 or more miles (10+ km)
Ceiling: ceiling and visibility are OK
Clouds: unknown
Weather: no significant weather observed at this time

METAR text: LFBD 170300Z AUTO 34002KT CAVOK 14/12 Q1018 NOSIG
Conditions at: LFBD (BORDEAUX/MERIGNA, FR) observed 0300 UTC 17 June 2019
Temperature: 14.0°C (57°F)
Dewpoint: 12.0°C (54°F) [RH = 88%]
Pressure (altimeter): 30.06 inches Hg (1018.0 mb)
Winds: from the NNW (340 degrees) at 2 MPH (2 knots; 1.0 m/s)
Visibility: 6 or more miles (10+ km)
Ceiling: ceiling and visibility are OK
Clouds: unknown
Weather: no significant weather observed at this time

METAR text: LFBD 170230Z AUTO 00000KT CAVOK 14/12 Q1018 NOSIG
Conditions at: LFBD (BORDEAUX/MERIGNA, FR) observed 0230 UTC 17 June 2019
Temperature: 14.0°C (57°F)
Dewpoint: 12.0°C (54°F) [RH = 88%]
Pressure (altimeter): 30.06 inches Hg (1018.0 mb)
Winds: calm
Visibility: 6 or more miles (10+ km)
Ceiling: ceiling and visibility are OK
Clouds: unknown
Weather: no significant weather observed at this time

METAR text: LFBD 170200Z AUTO 01004KT CAVOK 15/12 Q1018 NOSIG
Conditions at: LFBD (BORDEAUX/MERIGNA, FR) observed 0200 UTC 17 June 2019
Temperature: 15.0°C (59°F)
Dewpoint: 12.0°C (54°F) [RH = 82%]
Pressure (altimeter): 30.06 inches Hg (1018.0 mb)
Winds: from the N (10 degrees) at 5 MPH (4 knots; 2.1 m/s)
Visibility: 6 or more miles (10+ km)
Ceiling: ceiling and visibility are OK
Clouds: unknown
Weather: no significant weather observed at this time

METAR text: LFBD 170130Z AUTO VRB02KT 9999 4100 NSC 15/12 Q1018 NOSIG
Conditions at: LFBD (BORDEAUX/MERIGNA, FR) observed 0130 UTC 17 June 2019
Temperature: 15.0°C (59°F)
Dewpoint: 12.0°C (54°F) [RH = 82%]
Pressure (altimeter): 30.06 inches Hg (1018.0 mb)
Winds: variable direction winds at 2 MPH (2 knots; 1.0 m/s)
Visibility: 6 or more miles (10+ km)
Ceiling: at least 12,000 feet AGL
Clouds: sky clear below 12,000 feet AGL
Weather: no significant weather observed at this time

METAR text: LFBD 170100Z AUTO 01003KT CAVOK 15/13 Q1018 NOSIG
Conditions at: LFBD (BORDEAUX/MERIGNA, FR) observed 0100 UTC 17 June 2019
Temperature: 15.0°C (59°F)
Dewpoint: 13.0°C (55°F) [RH = 88%]
Pressure (altimeter): 30.06 inches Hg (1018.0 mb)
Winds: from the N (10 degrees) at 3 MPH (3 knots; 1.5 m/s)
Visibility: 6 or more miles (10+ km)
Ceiling: ceiling and visibility are OK
Clouds: unknown
Weather: no significant weather observed at this time

METAR text: LFBD 170030Z AUTO VRB02KT CAVOK 15/12 Q1019 NOSIG
Conditions at: LFBD (BORDEAUX/MERIGNA, FR) observed 0030 UTC 17 June 2019
Temperature: 15.0°C (59°F)
Dewpoint: 12.0°C (54°F) [RH = 82%]
Pressure (altimeter): 30.09 inches Hg (1019.0 mb)
Winds: variable direction winds at 2 MPH (2 knots; 1.0 m/s)
Visibility: 6 or more miles (10+ km)
Ceiling: ceiling and visibility are OK
Clouds: unknown
Weather: no significant weather observed at this time

METAR text: LFBD 170000Z AUTO 01003KT CAVOK 16/12 Q1019 NOSIG
Conditions at: LFBD (BORDEAUX/MERIGNA, FR) observed 0000 UTC 17 June 2019
Temperature: 16.0°C (61°F)
Dewpoint: 12.0°C (54°F) [RH = 77%]
Pressure (altimeter): 30.09 inches Hg (1019.0 mb)
Winds: from the N (10 degrees) at 3 MPH (3 knots; 1.5 m/s)
Visibility: 6 or more miles (10+ km)
Ceiling: ceiling and visibility are OK
Clouds: unknown
Weather: no significant weather observed at this time

Forecast for: LFBD (BORDEAUX/MERIGNA, FR)
Text: TAF LFBD 181100Z 1812/1918 19005KT CAVOK TX33/1815Z TN17/1904Z
Forecast period: 1200 to 1600 UTC 18 June 2019
Forecast type: FROM: standard forecast or significant change
Winds: from the S (190 degrees) at 6 MPH (5 knots; 2.6 m/s)
Visibility: 6 or more miles 10+ km)
Ceiling: unknown
Clouds: missing
Weather: no significant weather forecast for this period
Text: BECMG 1816/1818 32010KT
Forecast period: 1600 UTC 18 June 2019 to 0400 UTC 19 June 2019
Forecast type: BECOMING: Conditions expected to become as follows by 1800 UTC 18 June 2019
Winds: from the NW (320 degrees) at 12 MPH (10 knots; 5.1 m/s)
Visibility: 6 or more miles 10+ km)
Ceiling: unknown
Clouds: missing
Weather: no significant weather forecast for this period
Text: PROB40
Forecast period: 2100 UTC 18 June 2019 to 0200 UTC 19 June 2019
Forecast type: TEMPORARY: The following changes expected for less than half the time period
Visibility: missing
Ceiling: 8000 feet AGL
Clouds: broken clouds at 8000 feet AGL
Weather: -SHRA  (light rain showers)
Text: TEMPO 1821/1902 -SHRA BKN080TCU
Forecast period: 2100 UTC 18 June 2019 to 0000 UTC 19 June 2019
Forecast type: TEMPORARY: The following changes expected for less than half the time period
Winds: variable direction winds at 17 MPH (15 knots; 7.7 m/s)
gusting to 29 MPH (25 knots; 12.9 m/s)
Visibility: 2.49 miles (4.01 km)
Ceiling: 7000 feet AGL
Clouds: scattered clouds at 1500 feet AGL
broken clouds at 7000 feet AGL
Weather: TSRA  (rain associated with thunderstorm(s))
Text: PROB30
Forecast period: 0400 to 1800 UTC 19 June 2019
Forecast type: BECOMING: Conditions expected to become as follows by 0600 UTC 19 June 2019
Winds: from the W (270 degrees) at 6 MPH (5 knots; 2.6 m/s)
Visibility: 6 or more miles 10+ km)
Ceiling: unknown
Clouds: missing
Weather: no significant weather forecast for this period
Text: TEMPO 1821/1824 VRB15G25KT 4000 TSRA SCT015 BKN070CB
Forecast period: 1200 to 1500 UTC 19 June 2019
Forecast type: TEMPORARY: The following changes expected for less than half the time period
Visibility: missing
Ceiling: at least 12,000 feet AGL
Clouds: scattered clouds at 4000 feet AGL
Weather: no significant weather forecast for this period